sensor_id;sensor_type;location;lat;lon;timestamp;P1;durP1;ratioP1;P2;durP2;ratioP2
65835;SDS011;52595;51.608;7.216;2023-10-19T00:01:21;15.80;;;8.73;;
65835;SDS011;52595;51.608;7.216;2023-10-19T00:03:51;15.50;;;9.45;;
65835;SDS011;52595;51.608;7.216;2023-10-19T00:06:20;16.77;;;9.35;;
65835;SDS011;52595;51.608;7.216;2023-10-19T00:08:48;15.57;;;9.43;;
65835;SDS011;52595;51.608;7.216;2023-10-19T00:11:15;16.92;;;9.80;;
65835;SDS011;52595;51.608;7.216;2023-10-19T00:13:47;16.77;;;9.07;;
65835;SDS011;52595;51.608;7.216;2023-10-19T00:16:16;15.75;;;9.30;;
65835;SDS011;52595;51.608;7.216;2023-10-19T00:18:42;16.60;;;9.50;;
65835;SDS011;52595;51.608;7.216;2023-10-19T00:21:08;17.65;;;9.52;;
65835;SDS011;52595;51.608;7.216;2023-10-19T00:23:50;16.38;;;9.48;;
65835;SDS011;52595;51.608;7.216;2023-10-19T00:26:20;20.42;;;10.63;;
65835;SDS011;52595;51.608;7.216;2023-10-19T00:28:46;15.52;;;9.82;;
65835;SDS011;52595;51.608;7.216;2023-10-19T00:31:14;14.93;;;9.35;;
65835;SDS011;52595;51.608;7.216;2023-10-19T00:33:40;19.23;;;9.75;;
65835;SDS011;52595;51.608;7.216;2023-10-19T00:36:06;21.90;;;9.52;;
65835;SDS011;52595;51.608;7.216;2023-10-19T00:38:36;14.93;;;9.38;;
65835;SDS011;52595;51.608;7.216;2023-10-19T00:41:03;16.60;;;9.32;;
65835;SDS011;52595;51.608;7.216;2023-10-19T00:43:35;19.00;;;9.73;;
65835;SDS011;52595;51.608;7.216;2023-10-19T00:46:03;15.77;;;9.70;;
65835;SDS011;52595;51.608;7.216;2023-10-19T00:48:55;15.95;;;9.75;;
65835;SDS011;52595;51.608;7.216;2023-10-19T00:51:31;14.45;;;9.23;;
65835;SDS011;52595;51.608;7.216;2023-10-19T00:56:47;15.48;;;9.50;;
65835;SDS011;52595;51.608;7.216;2023-10-19T00:59:21;16.98;;;9.23;;
65835;SDS011;52595;51.608;7.216;2023-10-19T01:01:52;19.05;;;9.52;;
65835;SDS011;52595;51.608;7.216;2023-10-19T01:04:19;14.10;;;9.18;;
65835;SDS011;52595;51.608;7.216;2023-10-19T01:06:48;16.17;;;9.35;;
65835;SDS011;52595;51.608;7.216;2023-10-19T01:09:30;16.88;;;9.13;;
65835;SDS011;52595;51.608;7.216;2023-10-19T01:12:03;15.38;;;9.50;;
65835;SDS011;52595;51.608;7.216;2023-10-19T01:15:00;14.32;;;9.35;;
65835;SDS011;52595;51.608;7.216;2023-10-19T01:17:35;15.88;;;9.27;;
65835;SDS011;52595;51.608;7.216;2023-10-19T01:20:08;15.48;;;9.25;;
65835;SDS011;52595;51.608;7.216;2023-10-19T01:22:48;15.70;;;8.82;;
65835;SDS011;52595;51.608;7.216;2023-10-19T01:25:34;12.68;;;8.82;;
65835;SDS011;52595;51.608;7.216;2023-10-19T01:28:09;14.90;;;9.18;;
65835;SDS011;52595;51.608;7.216;2023-10-19T01:30:36;13.77;;;9.00;;
65835;SDS011;52595;51.608;7.216;2023-10-19T01:33:03;14.50;;;9.50;;
65835;SDS011;52595;51.608;7.216;2023-10-19T01:35:33;15.48;;;9.52;;
65835;SDS011;52595;51.608;7.216;2023-10-19T01:38:17;16.80;;;9.02;;
65835;SDS011;52595;51.608;7.216;2023-10-19T01:40:42;19.10;;;9.85;;
65835;SDS011;52595;51.608;7.216;2023-10-19T01:43:14;13.68;;;8.70;;
65835;SDS011;52595;51.608;7.216;2023-10-19T01:45:46;14.32;;;8.98;;
65835;SDS011;52595;51.608;7.216;2023-10-19T01:48:12;15.10;;;9.63;;
65835;SDS011;52595;51.608;7.216;2023-10-19T01:50:41;13.65;;;8.73;;
65835;SDS011;52595;51.608;7.216;2023-10-19T01:53:06;17.38;;;8.77;;
65835;SDS011;52595;51.608;7.216;2023-10-19T01:55:41;13.65;;;8.80;;
65835;SDS011;52595;51.608;7.216;2023-10-19T01:58:08;13.55;;;8.82;;
65835;SDS011;52595;51.608;7.216;2023-10-19T02:00:34;12.88;;;9.00;;
65835;SDS011;52595;51.608;7.216;2023-10-19T02:03:06;13.82;;;8.93;;
65835;SDS011;52595;51.608;7.216;2023-10-19T02:05:32;16.77;;;9.15;;
65835;SDS011;52595;51.608;7.216;2023-10-19T02:08:05;13.95;;;8.68;;
65835;SDS011;52595;51.608;7.216;2023-10-19T02:10:34;14.40;;;8.85;;
65835;SDS011;52595;51.608;7.216;2023-10-19T02:13:00;13.32;;;9.02;;
65835;SDS011;52595;51.608;7.216;2023-10-19T02:18:01;13.75;;;8.20;;
65835;SDS011;52595;51.608;7.216;2023-10-19T02:20:28;12.70;;;8.07;;
65835;SDS011;52595;51.608;7.216;2023-10-19T02:22:54;12.85;;;8.80;;
65835;SDS011;52595;51.608;7.216;2023-10-19T02:25:22;13.15;;;8.50;;
65835;SDS011;52595;51.608;7.216;2023-10-19T02:27:50;13.20;;;8.85;;
65835;SDS011;52595;51.608;7.216;2023-10-19T02:30:16;16.38;;;8.75;;
65835;SDS011;52595;51.608;7.216;2023-10-19T02:32:42;13.55;;;8.45;;
65835;SDS011;52595;51.608;7.216;2023-10-19T02:35:08;13.55;;;9.10;;
65835;SDS011;52595;51.608;7.216;2023-10-19T02:37:34;15.10;;;8.88;;
65835;SDS011;52595;51.608;7.216;2023-10-19T02:40:00;14.27;;;8.77;;
65835;SDS011;52595;51.608;7.216;2023-10-19T02:42:25;15.05;;;9.85;;
65835;SDS011;52595;51.608;7.216;2023-10-19T02:44:51;13.65;;;8.55;;
65835;SDS011;52595;51.608;7.216;2023-10-19T02:47:16;14.90;;;8.55;;
65835;SDS011;52595;51.608;7.216;2023-10-19T02:49:42;13.90;;;8.27;;
65835;SDS011;52595;51.608;7.216;2023-10-19T02:52:09;11.70;;;8.35;;
65835;SDS011;52595;51.608;7.216;2023-10-19T02:54:38;14.60;;;8.27;;
65835;SDS011;52595;51.608;7.216;2023-10-19T02:57:04;14.02;;;8.32;;
65835;SDS011;52595;51.608;7.216;2023-10-19T02:59:37;16.02;;;7.85;;
65835;SDS011;52595;51.608;7.216;2023-10-19T03:02:05;12.35;;;7.57;;
65835;SDS011;52595;51.608;7.216;2023-10-19T03:04:36;14.13;;;7.07;;
65835;SDS011;52595;51.608;7.216;2023-10-19T03:07:02;12.25;;;7.13;;
65835;SDS011;52595;51.608;7.216;2023-10-19T03:09:29;14.27;;;7.05;;
65835;SDS011;52595;51.608;7.216;2023-10-19T03:11:55;10.10;;;6.45;;
65835;SDS011;52595;51.608;7.216;2023-10-19T03:14:25;13.13;;;7.00;;
65835;SDS011;52595;51.608;7.216;2023-10-19T03:16:51;9.02;;;5.95;;
65835;SDS011;52595;51.608;7.216;2023-10-19T03:19:17;8.10;;;5.55;;
65835;SDS011;52595;51.608;7.216;2023-10-19T03:21:42;9.27;;;5.70;;
65835;SDS011;52595;51.608;7.216;2023-10-19T03:24:09;10.45;;;6.10;;
65835;SDS011;52595;51.608;7.216;2023-10-19T03:26:40;8.13;;;5.53;;
65835;SDS011;52595;51.608;7.216;2023-10-19T03:29:13;11.52;;;5.88;;
65835;SDS011;52595;51.608;7.216;2023-10-19T03:31:40;7.95;;;5.20;;
65835;SDS011;52595;51.608;7.216;2023-10-19T03:34:14;10.10;;;5.57;;
65835;SDS011;52595;51.608;7.216;2023-10-19T03:36:42;8.60;;;5.35;;
65835;SDS011;52595;51.608;7.216;2023-10-19T03:39:08;10.02;;;5.15;;
65835;SDS011;52595;51.608;7.216;2023-10-19T03:41:38;8.02;;;5.45;;
65835;SDS011;52595;51.608;7.216;2023-10-19T03:44:07;9.05;;;5.18;;
65835;SDS011;52595;51.608;7.216;2023-10-19T03:47:01;10.63;;;4.95;;
65835;SDS011;52595;51.608;7.216;2023-10-19T03:49:30;8.82;;;4.70;;
65835;SDS011;52595;51.608;7.216;2023-10-19T03:52:01;7.53;;;4.75;;
65835;SDS011;52595;51.608;7.216;2023-10-19T03:54:36;8.52;;;4.95;;
65835;SDS011;52595;51.608;7.216;2023-10-19T03:57:06;8.00;;;5.43;;
65835;SDS011;52595;51.608;7.216;2023-10-19T03:59:44;8.95;;;5.10;;
65835;SDS011;52595;51.608;7.216;2023-10-19T04:02:10;9.63;;;5.68;;
65835;SDS011;52595;51.608;7.216;2023-10-19T04:04:45;9.70;;;5.90;;
65835;SDS011;52595;51.608;7.216;2023-10-19T04:07:13;11.25;;;5.88;;
65835;SDS011;52595;51.608;7.216;2023-10-19T04:09:51;9.93;;;4.63;;
65835;SDS011;52595;51.608;7.216;2023-10-19T04:12:24;6.57;;;4.63;;
65835;SDS011;52595;51.608;7.216;2023-10-19T04:14:50;10.52;;;4.60;;
65835;SDS011;52595;51.608;7.216;2023-10-19T04:17:16;6.57;;;3.95;;
65835;SDS011;52595;51.608;7.216;2023-10-19T04:19:46;8.60;;;4.25;;
65835;SDS011;52595;51.608;7.216;2023-10-19T04:22:14;9.65;;;4.60;;
65835;SDS011;52595;51.608;7.216;2023-10-19T04:24:47;8.80;;;4.43;;
65835;SDS011;52595;51.608;7.216;2023-10-19T04:27:13;7.68;;;4.60;;
65835;SDS011;52595;51.608;7.216;2023-10-19T04:29:39;6.70;;;4.03;;
65835;SDS011;52595;51.608;7.216;2023-10-19T04:32:08;6.10;;;3.92;;
65835;SDS011;52595;51.608;7.216;2023-10-19T04:34:34;7.75;;;3.95;;
65835;SDS011;52595;51.608;7.216;2023-10-19T04:37:01;6.57;;;3.88;;
65835;SDS011;52595;51.608;7.216;2023-10-19T04:39:28;6.70;;;3.72;;
65835;SDS011;52595;51.608;7.216;2023-10-19T04:41:55;5.22;;;3.38;;
65835;SDS011;52595;51.608;7.216;2023-10-19T04:44:21;8.60;;;4.13;;
65835;SDS011;52595;51.608;7.216;2023-10-19T04:46:46;9.35;;;3.85;;
65835;SDS011;52595;51.608;7.216;2023-10-19T04:49:11;5.57;;;3.15;;
65835;SDS011;52595;51.608;7.216;2023-10-19T04:51:37;5.85;;;3.70;;
65835;SDS011;52595;51.608;7.216;2023-10-19T04:54:04;7.00;;;3.65;;
65835;SDS011;52595;51.608;7.216;2023-10-19T04:56:30;5.45;;;3.60;;
65835;SDS011;52595;51.608;7.216;2023-10-19T04:58:57;4.93;;;3.20;;
65835;SDS011;52595;51.608;7.216;2023-10-19T05:01:22;8.18;;;3.75;;
65835;SDS011;52595;51.608;7.216;2023-10-19T05:03:48;7.35;;;3.40;;
65835;SDS011;52595;51.608;7.216;2023-10-19T05:06:13;6.50;;;3.42;;
65835;SDS011;52595;51.608;7.216;2023-10-19T05:08:38;6.93;;;3.58;;
65835;SDS011;52595;51.608;7.216;2023-10-19T05:11:04;5.15;;;3.60;;
65835;SDS011;52595;51.608;7.216;2023-10-19T05:13:30;4.50;;;3.10;;
65835;SDS011;52595;51.608;7.216;2023-10-19T05:15:56;7.45;;;3.70;;
65835;SDS011;52595;51.608;7.216;2023-10-19T05:18:24;8.65;;;3.58;;
65835;SDS011;52595;51.608;7.216;2023-10-19T05:20:50;7.13;;;3.58;;
65835;SDS011;52595;51.608;7.216;2023-10-19T05:23:20;7.85;;;3.25;;
65835;SDS011;52595;51.608;7.216;2023-10-19T05:25:49;8.10;;;3.65;;
65835;SDS011;52595;51.608;7.216;2023-10-19T05:28:17;5.80;;;3.33;;
65835;SDS011;52595;51.608;7.216;2023-10-19T05:30:44;7.07;;;3.25;;
65835;SDS011;52595;51.608;7.216;2023-10-19T05:33:09;4.88;;;3.50;;
65835;SDS011;52595;51.608;7.216;2023-10-19T05:35:34;6.05;;;3.78;;
65835;SDS011;52595;51.608;7.216;2023-10-19T05:38:05;7.07;;;3.70;;
65835;SDS011;52595;51.608;7.216;2023-10-19T05:40:31;6.78;;;3.40;;
65835;SDS011;52595;51.608;7.216;2023-10-19T05:42:57;6.72;;;3.42;;
65835;SDS011;52595;51.608;7.216;2023-10-19T05:45:23;5.43;;;3.83;;
65835;SDS011;52595;51.608;7.216;2023-10-19T05:47:49;6.20;;;3.97;;
65835;SDS011;52595;51.608;7.216;2023-10-19T05:50:14;8.15;;;3.92;;
65835;SDS011;52595;51.608;7.216;2023-10-19T05:52:43;6.65;;;3.67;;
65835;SDS011;52595;51.608;7.216;2023-10-19T05:55:09;6.68;;;3.47;;
65835;SDS011;52595;51.608;7.216;2023-10-19T05:57:38;6.93;;;3.60;;
65835;SDS011;52595;51.608;7.216;2023-10-19T06:00:08;7.28;;;3.50;;
65835;SDS011;52595;51.608;7.216;2023-10-19T06:02:38;8.00;;;3.67;;
65835;SDS011;52595;51.608;7.216;2023-10-19T06:05:10;8.82;;;3.33;;
65835;SDS011;52595;51.608;7.216;2023-10-19T06:07:38;6.30;;;3.42;;
65835;SDS011;52595;51.608;7.216;2023-10-19T06:10:04;6.65;;;3.70;;
65835;SDS011;52595;51.608;7.216;2023-10-19T06:12:31;7.57;;;3.42;;
65835;SDS011;52595;51.608;7.216;2023-10-19T06:14:56;7.68;;;3.53;;
65835;SDS011;52595;51.608;7.216;2023-10-19T06:17:22;6.43;;;3.60;;
65835;SDS011;52595;51.608;7.216;2023-10-19T06:22:58;6.57;;;3.60;;
65835;SDS011;52595;51.608;7.216;2023-10-19T06:25:31;8.32;;;3.65;;
65835;SDS011;52595;51.608;7.216;2023-10-19T06:27:57;6.78;;;3.22;;
65835;SDS011;52595;51.608;7.216;2023-10-19T06:30:24;5.93;;;3.20;;
65835;SDS011;52595;51.608;7.216;2023-10-19T06:32:52;8.98;;;3.47;;
65835;SDS011;52595;51.608;7.216;2023-10-19T06:35:22;7.18;;;3.63;;
65835;SDS011;52595;51.608;7.216;2023-10-19T06:37:48;13.50;;;5.15;;
65835;SDS011;52595;51.608;7.216;2023-10-19T06:40:15;9.02;;;3.40;;
65835;SDS011;52595;51.608;7.216;2023-10-19T06:42:42;6.82;;;3.70;;
65835;SDS011;52595;51.608;7.216;2023-10-19T06:45:08;10.15;;;3.75;;
65835;SDS011;52595;51.608;7.216;2023-10-19T06:47:35;6.35;;;3.67;;
65835;SDS011;52595;51.608;7.216;2023-10-19T06:50:06;8.38;;;3.47;;
65835;SDS011;52595;51.608;7.216;2023-10-19T06:52:38;5.60;;;2.83;;
65835;SDS011;52595;51.608;7.216;2023-10-19T06:55:05;5.30;;;3.03;;
65835;SDS011;52595;51.608;7.216;2023-10-19T06:57:38;5.07;;;2.97;;
65835;SDS011;52595;51.608;7.216;2023-10-19T07:00:25;9.68;;;3.13;;
65835;SDS011;52595;51.608;7.216;2023-10-19T07:02:56;12.30;;;3.38;;
65835;SDS011;52595;51.608;7.216;2023-10-19T07:05:25;5.13;;;2.83;;
65835;SDS011;52595;51.608;7.216;2023-10-19T07:07:52;8.38;;;2.78;;
65835;SDS011;52595;51.608;7.216;2023-10-19T07:10:20;6.30;;;2.75;;
65835;SDS011;52595;51.608;7.216;2023-10-19T07:12:46;5.53;;;2.67;;
65835;SDS011;52595;51.608;7.216;2023-10-19T07:15:15;4.72;;;2.90;;
65835;SDS011;52595;51.608;7.216;2023-10-19T07:17:44;8.93;;;3.42;;
65835;SDS011;52595;51.608;7.216;2023-10-19T07:20:12;7.32;;;3.00;;
65835;SDS011;52595;51.608;7.216;2023-10-19T07:22:50;6.38;;;3.10;;
65835;SDS011;52595;51.608;7.216;2023-10-19T07:25:20;9.77;;;3.60;;
65835;SDS011;52595;51.608;7.216;2023-10-19T07:27:47;7.72;;;3.50;;
65835;SDS011;52595;51.608;7.216;2023-10-19T07:30:14;8.10;;;3.38;;
65835;SDS011;52595;51.608;7.216;2023-10-19T07:32:41;7.78;;;3.30;;
65835;SDS011;52595;51.608;7.216;2023-10-19T07:35:07;7.72;;;3.40;;
65835;SDS011;52595;51.608;7.216;2023-10-19T07:37:33;7.93;;;3.63;;
65835;SDS011;52595;51.608;7.216;2023-10-19T07:39:58;8.23;;;3.40;;
65835;SDS011;52595;51.608;7.216;2023-10-19T07:42:24;8.25;;;3.30;;
65835;SDS011;52595;51.608;7.216;2023-10-19T07:44:50;7.32;;;3.53;;
65835;SDS011;52595;51.608;7.216;2023-10-19T07:47:16;7.18;;;3.50;;
65835;SDS011;52595;51.608;7.216;2023-10-19T07:49:41;9.32;;;2.90;;
65835;SDS011;52595;51.608;7.216;2023-10-19T07:52:08;8.32;;;3.20;;
65835;SDS011;52595;51.608;7.216;2023-10-19T07:54:36;6.93;;;2.80;;
65835;SDS011;52595;51.608;7.216;2023-10-19T07:57:02;6.68;;;2.72;;
65835;SDS011;52595;51.608;7.216;2023-10-19T07:59:31;8.10;;;2.90;;
65835;SDS011;52595;51.608;7.216;2023-10-19T08:02:02;5.47;;;2.70;;
65835;SDS011;52595;51.608;7.216;2023-10-19T08:04:28;6.38;;;2.42;;
65835;SDS011;52595;51.608;7.216;2023-10-19T08:06:54;6.65;;;2.60;;
65835;SDS011;52595;51.608;7.216;2023-10-19T08:09:20;6.47;;;2.67;;
65835;SDS011;52595;51.608;7.216;2023-10-19T08:11:50;6.18;;;2.85;;
65835;SDS011;52595;51.608;7.216;2023-10-19T08:14:24;5.68;;;2.65;;
65835;SDS011;52595;51.608;7.216;2023-10-19T08:16:51;5.63;;;2.53;;
65835;SDS011;52595;51.608;7.216;2023-10-19T08:19:17;6.15;;;2.70;;
65835;SDS011;52595;51.608;7.216;2023-10-19T08:21:43;5.63;;;2.50;;
65835;SDS011;52595;51.608;7.216;2023-10-19T08:24:09;6.65;;;2.70;;
65835;SDS011;52595;51.608;7.216;2023-10-19T08:26:42;7.32;;;2.60;;
65835;SDS011;52595;51.608;7.216;2023-10-19T08:29:10;5.22;;;3.05;;
65835;SDS011;52595;51.608;7.216;2023-10-19T08:31:42;6.07;;;2.60;;
65835;SDS011;52595;51.608;7.216;2023-10-19T08:34:10;5.68;;;2.70;;
65835;SDS011;52595;51.608;7.216;2023-10-19T08:36:37;9.07;;;2.88;;
65835;SDS011;52595;51.608;7.216;2023-10-19T08:39:06;8.00;;;3.00;;
65835;SDS011;52595;51.608;7.216;2023-10-19T08:41:35;5.55;;;2.95;;
65835;SDS011;52595;51.608;7.216;2023-10-19T08:44:02;7.35;;;3.30;;
65835;SDS011;52595;51.608;7.216;2023-10-19T08:46:36;6.57;;;3.15;;
65835;SDS011;52595;51.608;7.216;2023-10-19T08:49:12;4.78;;;2.85;;
65835;SDS011;52595;51.608;7.216;2023-10-19T08:51:40;6.35;;;2.70;;
65835;SDS011;52595;51.608;7.216;2023-10-19T08:54:09;6.47;;;2.90;;
65835;SDS011;52595;51.608;7.216;2023-10-19T08:56:36;4.97;;;2.83;;
65835;SDS011;52595;51.608;7.216;2023-10-19T08:59:02;6.10;;;3.00;;
65835;SDS011;52595;51.608;7.216;2023-10-19T09:01:28;5.47;;;2.70;;
65835;SDS011;52595;51.608;7.216;2023-10-19T09:03:57;6.53;;;2.78;;
65835;SDS011;52595;51.608;7.216;2023-10-19T09:06:23;5.72;;;2.90;;
65835;SDS011;52595;51.608;7.216;2023-10-19T09:08:49;5.15;;;2.72;;
65835;SDS011;52595;51.608;7.216;2023-10-19T09:11:15;5.80;;;2.80;;
65835;SDS011;52595;51.608;7.216;2023-10-19T09:13:44;5.15;;;2.92;;
65835;SDS011;52595;51.608;7.216;2023-10-19T09:16:12;10.38;;;3.25;;
65835;SDS011;52595;51.608;7.216;2023-10-19T09:18:39;8.20;;;3.28;;
65835;SDS011;52595;51.608;7.216;2023-10-19T09:21:06;6.60;;;3.40;;
65835;SDS011;52595;51.608;7.216;2023-10-19T09:23:32;5.05;;;3.10;;
65835;SDS011;52595;51.608;7.216;2023-10-19T09:26:00;6.68;;;3.30;;
65835;SDS011;52595;51.608;7.216;2023-10-19T09:28:29;6.07;;;3.22;;
65835;SDS011;52595;51.608;7.216;2023-10-19T09:30:55;9.02;;;2.80;;
65835;SDS011;52595;51.608;7.216;2023-10-19T09:33:21;7.60;;;3.13;;
65835;SDS011;52595;51.608;7.216;2023-10-19T09:35:48;5.57;;;3.00;;
65835;SDS011;52595;51.608;7.216;2023-10-19T09:38:15;6.57;;;3.30;;
65835;SDS011;52595;51.608;7.216;2023-10-19T09:40:41;6.47;;;3.00;;
65835;SDS011;52595;51.608;7.216;2023-10-19T09:43:08;6.65;;;2.63;;
65835;SDS011;52595;51.608;7.216;2023-10-19T09:45:41;5.70;;;2.40;;
65835;SDS011;52595;51.608;7.216;2023-10-19T09:48:07;5.70;;;2.50;;
65835;SDS011;52595;51.608;7.216;2023-10-19T09:50:33;6.93;;;2.75;;
65835;SDS011;52595;51.608;7.216;2023-10-19T09:52:59;5.78;;;2.42;;
65835;SDS011;52595;51.608;7.216;2023-10-19T09:55:29;5.70;;;2.60;;
65835;SDS011;52595;51.608;7.216;2023-10-19T09:58:02;4.68;;;2.22;;
65835;SDS011;52595;51.608;7.216;2023-10-19T10:03:34;5.00;;;2.33;;
65835;SDS011;52595;51.608;7.216;2023-10-19T10:06:10;7.72;;;2.38;;
65835;SDS011;52595;51.608;7.216;2023-10-19T10:08:40;5.07;;;2.10;;
65835;SDS011;52595;51.608;7.216;2023-10-19T10:11:17;5.35;;;2.30;;
65835;SDS011;52595;51.608;7.216;2023-10-19T10:13:46;6.63;;;2.30;;
65835;SDS011;52595;51.608;7.216;2023-10-19T10:16:16;6.20;;;2.30;;
65835;SDS011;52595;51.608;7.216;2023-10-19T10:18:42;8.02;;;2.15;;
65835;SDS011;52595;51.608;7.216;2023-10-19T10:21:11;6.22;;;2.10;;
65835;SDS011;52595;51.608;7.216;2023-10-19T10:23:43;7.75;;;2.00;;
65835;SDS011;52595;51.608;7.216;2023-10-19T10:26:10;5.15;;;1.95;;
65835;SDS011;52595;51.608;7.216;2023-10-19T10:28:37;6.93;;;2.53;;
65835;SDS011;52595;51.608;7.216;2023-10-19T10:31:07;4.80;;;2.30;;
65835;SDS011;52595;51.608;7.216;2023-10-19T10:36:05;3.47;;;1.85;;
65835;SDS011;52595;51.608;7.216;2023-10-19T10:38:34;6.57;;;1.90;;
65835;SDS011;52595;51.608;7.216;2023-10-19T10:41:00;5.22;;;1.75;;
65835;SDS011;52595;51.608;7.216;2023-10-19T10:43:27;3.78;;;1.83;;
65835;SDS011;52595;51.608;7.216;2023-10-19T10:45:55;5.68;;;1.90;;
65835;SDS011;52595;51.608;7.216;2023-10-19T10:48:28;4.68;;;2.00;;
65835;SDS011;52595;51.608;7.216;2023-10-19T10:50:53;9.43;;;2.10;;
65835;SDS011;52595;51.608;7.216;2023-10-19T10:53:19;7.55;;;2.00;;
65835;SDS011;52595;51.608;7.216;2023-10-19T10:55:44;6.80;;;1.90;;
65835;SDS011;52595;51.608;7.216;2023-10-19T10:58:14;5.78;;;1.77;;
65835;SDS011;52595;51.608;7.216;2023-10-19T11:03:10;5.22;;;1.63;;
65835;SDS011;52595;51.608;7.216;2023-10-19T11:05:36;5.30;;;1.90;;
65835;SDS011;52595;51.608;7.216;2023-10-19T11:08:04;6.53;;;1.90;;
65835;SDS011;52595;51.608;7.216;2023-10-19T11:10:31;5.78;;;2.08;;
65835;SDS011;52595;51.608;7.216;2023-10-19T11:13:06;4.65;;;1.80;;
65835;SDS011;52595;51.608;7.216;2023-10-19T11:15:33;6.85;;;2.10;;
65835;SDS011;52595;51.608;7.216;2023-10-19T11:17:59;6.60;;;1.92;;
65835;SDS011;52595;51.608;7.216;2023-10-19T11:20:26;6.55;;;1.70;;
65835;SDS011;52595;51.608;7.216;2023-10-19T11:22:52;5.35;;;1.60;;
65835;SDS011;52595;51.608;7.216;2023-10-19T11:25:21;5.78;;;1.83;;
65835;SDS011;52595;51.608;7.216;2023-10-19T11:27:48;7.15;;;1.95;;
65835;SDS011;52595;51.608;7.216;2023-10-19T11:30:22;3.58;;;1.55;;
65835;SDS011;52595;51.608;7.216;2023-10-19T11:32:48;6.22;;;1.80;;
65835;SDS011;52595;51.608;7.216;2023-10-19T11:35:17;7.30;;;1.80;;
65835;SDS011;52595;51.608;7.216;2023-10-19T11:37:54;5.72;;;1.92;;
65835;SDS011;52595;51.608;7.216;2023-10-19T11:40:21;6.05;;;1.80;;
65835;SDS011;52595;51.608;7.216;2023-10-19T11:42:48;4.75;;;1.80;;
65835;SDS011;52595;51.608;7.216;2023-10-19T11:45:14;6.85;;;1.83;;
65835;SDS011;52595;51.608;7.216;2023-10-19T11:47:39;7.22;;;1.70;;
65835;SDS011;52595;51.608;7.216;2023-10-19T11:50:05;7.60;;;1.90;;
65835;SDS011;52595;51.608;7.216;2023-10-19T11:52:31;5.47;;;1.70;;
65835;SDS011;52595;51.608;7.216;2023-10-19T11:54:56;7.03;;;1.98;;
65835;SDS011;52595;51.608;7.216;2023-10-19T11:57:23;7.32;;;1.80;;
65835;SDS011;52595;51.608;7.216;2023-10-19T11:59:49;5.85;;;1.73;;
65835;SDS011;52595;51.608;7.216;2023-10-19T12:02:20;3.85;;;1.40;;
65835;SDS011;52595;51.608;7.216;2023-10-19T12:04:46;6.00;;;1.90;;
65835;SDS011;52595;51.608;7.216;2023-10-19T12:07:12;3.55;;;1.60;;
65835;SDS011;52595;51.608;7.216;2023-10-19T12:09:37;6.72;;;1.80;;
65835;SDS011;52595;51.608;7.216;2023-10-19T12:12:06;5.60;;;1.80;;
65835;SDS011;52595;51.608;7.216;2023-10-19T12:14:32;9.32;;;1.90;;
65835;SDS011;52595;51.608;7.216;2023-10-19T12:17:00;8.38;;;2.30;;
65835;SDS011;52595;51.608;7.216;2023-10-19T12:19:30;3.92;;;1.60;;
65835;SDS011;52595;51.608;7.216;2023-10-19T12:21:56;7.55;;;2.00;;
65835;SDS011;52595;51.608;7.216;2023-10-19T12:24:22;5.20;;;1.90;;
65835;SDS011;52595;51.608;7.216;2023-10-19T12:26:48;8.18;;;2.17;;
65835;SDS011;52595;51.608;7.216;2023-10-19T12:29:13;6.65;;;1.88;;
65835;SDS011;52595;51.608;7.216;2023-10-19T12:31:42;8.25;;;2.28;;
65835;SDS011;52595;51.608;7.216;2023-10-19T12:34:07;7.90;;;2.00;;
65835;SDS011;52595;51.608;7.216;2023-10-19T12:36:34;5.60;;;1.73;;
65835;SDS011;52595;51.608;7.216;2023-10-19T12:39:00;8.55;;;2.10;;
65835;SDS011;52595;51.608;7.216;2023-10-19T12:41:27;7.50;;;1.92;;
65835;SDS011;52595;51.608;7.216;2023-10-19T12:43:53;5.30;;;1.83;;
65835;SDS011;52595;51.608;7.216;2023-10-19T12:46:33;6.35;;;1.80;;
65835;SDS011;52595;51.608;7.216;2023-10-19T12:49:01;7.65;;;2.13;;
65835;SDS011;52595;51.608;7.216;2023-10-19T12:51:33;7.85;;;2.00;;
65835;SDS011;52595;51.608;7.216;2023-10-19T12:53:59;7.68;;;1.92;;
65835;SDS011;52595;51.608;7.216;2023-10-19T12:56:28;6.45;;;1.83;;
65835;SDS011;52595;51.608;7.216;2023-10-19T12:58:54;6.75;;;1.90;;
65835;SDS011;52595;51.608;7.216;2023-10-19T13:01:19;5.10;;;1.80;;
65835;SDS011;52595;51.608;7.216;2023-10-19T13:03:46;5.85;;;1.88;;
65835;SDS011;52595;51.608;7.216;2023-10-19T13:06:14;7.65;;;1.70;;
65835;SDS011;52595;51.608;7.216;2023-10-19T13:08:40;5.30;;;1.95;;
65835;SDS011;52595;51.608;7.216;2023-10-19T13:11:07;5.57;;;1.90;;
65835;SDS011;52595;51.608;7.216;2023-10-19T13:13:33;4.97;;;1.80;;
65835;SDS011;52595;51.608;7.216;2023-10-19T13:16:01;6.30;;;1.80;;
65835;SDS011;52595;51.608;7.216;2023-10-19T13:18:30;7.57;;;2.10;;
65835;SDS011;52595;51.608;7.216;2023-10-19T13:20:59;7.50;;;1.92;;
65835;SDS011;52595;51.608;7.216;2023-10-19T13:23:29;7.25;;;2.20;;
65835;SDS011;52595;51.608;7.216;2023-10-19T13:25:58;8.23;;;2.33;;
65835;SDS011;52595;51.608;7.216;2023-10-19T13:28:33;4.82;;;1.90;;
65835;SDS011;52595;51.608;7.216;2023-10-19T13:31:03;6.25;;;2.15;;
65835;SDS011;52595;51.608;7.216;2023-10-19T13:33:29;5.70;;;2.38;;
65835;SDS011;52595;51.608;7.216;2023-10-19T13:35:55;6.50;;;2.20;;
65835;SDS011;52595;51.608;7.216;2023-10-19T13:38:20;7.13;;;2.60;;
65835;SDS011;52595;51.608;7.216;2023-10-19T13:40:46;10.20;;;2.50;;
65835;SDS011;52595;51.608;7.216;2023-10-19T13:43:12;9.52;;;2.30;;
65835;SDS011;52595;51.608;7.216;2023-10-19T13:45:39;6.72;;;2.40;;
65835;SDS011;52595;51.608;7.216;2023-10-19T13:48:06;9.05;;;2.28;;
65835;SDS011;52595;51.608;7.216;2023-10-19T13:50:33;6.97;;;2.30;;
65835;SDS011;52595;51.608;7.216;2023-10-19T13:52:59;9.32;;;2.50;;
65835;SDS011;52595;51.608;7.216;2023-10-19T13:55:25;8.20;;;2.30;;
65835;SDS011;52595;51.608;7.216;2023-10-19T13:57:51;11.93;;;2.60;;
65835;SDS011;52595;51.608;7.216;2023-10-19T14:00:17;10.45;;;2.47;;
65835;SDS011;52595;51.608;7.216;2023-10-19T14:02:49;8.30;;;2.42;;
65835;SDS011;52595;51.608;7.216;2023-10-19T14:05:15;9.38;;;2.50;;
65835;SDS011;52595;51.608;7.216;2023-10-19T14:07:41;8.48;;;2.47;;
65835;SDS011;52595;51.608;7.216;2023-10-19T14:10:07;7.90;;;2.10;;
65835;SDS011;52595;51.608;7.216;2023-10-19T14:12:37;8.30;;;2.30;;
65835;SDS011;52595;51.608;7.216;2023-10-19T14:15:02;10.13;;;2.67;;
65835;SDS011;52595;51.608;7.216;2023-10-19T14:17:28;7.47;;;2.08;;
65835;SDS011;52595;51.608;7.216;2023-10-19T14:19:55;7.68;;;2.30;;
65835;SDS011;52595;51.608;7.216;2023-10-19T14:22:20;7.35;;;2.20;;
65835;SDS011;52595;51.608;7.216;2023-10-19T14:24:45;9.40;;;2.38;;
65835;SDS011;52595;51.608;7.216;2023-10-19T14:27:11;10.45;;;2.42;;
65835;SDS011;52595;51.608;7.216;2023-10-19T14:29:38;11.70;;;2.75;;
65835;SDS011;52595;51.608;7.216;2023-10-19T14:32:04;7.65;;;2.55;;
65835;SDS011;52595;51.608;7.216;2023-10-19T14:34:29;9.48;;;2.58;;
65835;SDS011;52595;51.608;7.216;2023-10-19T14:36:55;5.75;;;2.40;;
65835;SDS011;52595;51.608;7.216;2023-10-19T14:39:20;7.25;;;2.28;;
65835;SDS011;52595;51.608;7.216;2023-10-19T14:41:46;9.43;;;2.63;;
65835;SDS011;52595;51.608;7.216;2023-10-19T14:44:11;9.02;;;2.40;;
65835;SDS011;52595;51.608;7.216;2023-10-19T14:46:37;7.40;;;2.60;;
65835;SDS011;52595;51.608;7.216;2023-10-19T14:49:03;10.90;;;3.65;;
65835;SDS011;52595;51.608;7.216;2023-10-19T14:51:28;9.35;;;3.75;;
65835;SDS011;52595;51.608;7.216;2023-10-19T14:53:55;8.38;;;2.65;;
65835;SDS011;52595;51.608;7.216;2023-10-19T14:56:21;10.55;;;3.70;;
65835;SDS011;52595;51.608;7.216;2023-10-19T14:58:46;12.80;;;5.35;;
65835;SDS011;52595;51.608;7.216;2023-10-19T15:01:12;12.48;;;6.07;;
65835;SDS011;52595;51.608;7.216;2023-10-19T15:03:42;10.70;;;5.18;;
65835;SDS011;52595;51.608;7.216;2023-10-19T15:06:07;9.27;;;4.30;;